Air Navigation Services of Czech Republic  
Last data update:  13.11.2018 20:21:08 UTC Česká verze
   METEO Page displayed:  13.11.2018 20:21:38 UTC  
help
METAR EDDB 131950Z 24009KT CAVOK 07/06 Q1025 NOSIG=
METAR EDDC 131950Z 26006KT 220V290 CAVOK 09/06 Q1027 NOSIG=
METAR EDDE 131950Z 25007KT CAVOK 07/05 Q1028 NOSIG=
METAR EDDF 131950Z 19007KT CAVOK 08/06 Q1030 NOSIG=
METAR EDDM 131950Z 23003KT CAVOK 07/05 Q1031 NOSIG=
METAR EDDN 131950Z 13005KT 9999 3000E BCFG NSC 07/06 Q1031 NOSIG=
METAR EDDP 131950Z 23009KT CAVOK 07/06 Q1027 NOSIG=
METAR EDDT 131950Z 24009KT CAVOK 08/07 Q1025 NOSIG=
METAR EDQM 131850Z 23008KT 9999 -SHRA FEW019 SCT033 08/06 Q1028=
METAR EPBY 132000Z 28008KT 9999 FEW012 BKN020 08/07 Q1022 =
METAR EPGD 132000Z 26009KT 9999 BKN010 BKN015 08/08 Q1020 =
METAR EPKK 132000Z 25012KT 7000 -RA BKN026 12/10 Q1025 =
METAR EPKT 132000Z 30013KT 9999 -RA FEW005 SCT006 BKN008 10/09 Q1025 =
METAR EPLL 132000Z 27014KT 9999 SCT008 BKN009 BKN011 10/09 Q1023 =
METAR EPPO 132000Z 27007KT 9999 -SHRA FEW007 SCT050CB 10/09 Q1024 =
METAR EPRZ 132000Z VRB03KT 5000 BR NSC 07/06 Q1023 =
METAR EPWA 132000Z 28007KT 8000 RA BKN005 10/10 Q1021 NOSIG=
METAR EPWR 132000Z 26008KT 9999 SCT046 09/07 Q1026 =
METAR LHBP 132000Z 29009KT CAVOK 10/07 Q1026 NOSIG=
METAR LHSM NIL
METAR LKBC 132000Z AUTO 29003KT 250V340 CAVOK 07/06 Q1028=
METAR LKCV 132000Z 27010KT CAVOK 09/07 Q1028 NOSIG RMK BLU BLU=
METAR LKKB 132000Z 23009KT CAVOK 08/06 Q1028 NOSIG RMK BLU BLU=
METAR LKKU NIL
METAR LKKV 132000Z 25006KT 220V280 9999 SCT022 07/06 Q1028 RMK REG QNH 1024=
METAR LKLN 132000Z AUTO VRB02KT CAVOK 07/06 Q1030=
METAR LKMT 132000Z 22009KT 6000 BKN038 10/09 Q1027 NOSIG RMK REG QNH 1024=
METAR LKNA 132000Z 29010KT CAVOK 08/06 Q1028 NOSIG RMK BLU BLU=
METAR LKPD 132000Z 27005KT CAVOK 09/07 Q1028 RMK BLACK=
METAR LKPR 132000Z 23013KT CAVOK 08/07 Q1028 NOSIG RMK REG QNH 1024=
SPECI LKTB 132002Z VRB02KT 9999 0800NE R27/0450 BCFG FEW027 07/07 Q1028 RMK REG QNH 1024=
METAR LKVO NIL
METAR LOWI 131950Z VRB02KT 9999 FEW030 BKN042 12/06 Q1031 NOSIG=
METAR LOWL 131950Z 29007KT 9999 FEW033 BKN055 10/08 Q1031 NOSIG=
METAR LOWS 131950Z VRB01KT 9999 SCT038 BKN048 11/06 Q1032 NOSIG=
METAR LOWW 131950Z 32008KT 9999 FEW026 SCT032 BKN070 12/08 Q1029 NOSIG=
METAR LZIB 132000Z 30007KT 9999 FEW015 BKN079 10/08 Q1028 WS R13=
METAR LZKZ 132000Z VRB01KT CAVOK 09/06 Q1025=
METAR LZMC 132000Z VRB02KT 6000 NSC 08/07 Q1029=
METAR LZPP 132000Z 29008KT 9999 SCT030 10/08 Q1028=
METAR LZSL 132000Z 00000KT 9999 BKN035 10/07 Q1026=
METAR LZTT 132000Z VRB04KT 9999 SCT040 07/04 Q1024=
METAR LZZI 132000Z 24007KT 9999 BKN024 BKN074 11/08 Q1027=